| time (UTC) | temp F | wind direction | speed knots | gust knots | rain 1hr in | rain 24hr in | rain mn in | humidity % | barometer mb |
| 20260502121408 | 66 | 136 | 4.3 | 5.2 | 0.00 | 0.00 | 0.00 | 27 | |
| 20260502120407 | 64 | 109 | 0.0 | 1.7 | 0.00 | 0.00 | 0.00 | 29 | |
| 20260502115407 | 62 | 133 | 0.0 | 0.0 | 0.00 | 0.00 | 0.00 | 29 | |
| 20260502114406 | 61 | 127 | 2.6 | 4.3 | 0.00 | 0.00 | 0.00 | 31 | |
| 20260502113407 | 61 | 136 | 2.6 | 3.5 | 0.00 | 0.00 | 0.00 | 30 | |
| 20260502112405 | 61 | 133 | 1.7 | 1.7 | 0.00 | 0.00 | 0.00 | 31 | |
| 20260502111404 | 59 | 133 | 2.6 | 4.3 | 0.00 | 0.00 | 0.00 | 33 | |
| 20260502110404 | 57 | 99 | 0.0 | 3.5 | 0.00 | 0.00 | 0.00 | 30 | |
| 20260502105406 | 56 | 158 | 0.0 | 3.5 | 0.00 | 0.00 | 0.00 | 32 | |
| 20260502105403 | 56 | 158 | 0.0 | 3.5 | 0.00 | 0.00 | 0.00 | 32 | |
| 20260502104519 | 56 | 132 | 2.6 | 3.5 | 0.00 | 0.00 | 0.00 | 32 | |
| 20260502104406 | 56 | 132 | 2.6 | 3.5 | 0.00 | 0.00 | 0.00 | 32 | |
| 20260502104403 | 56 | 132 | 2.6 | 3.5 | 0.00 | 0.00 | 0.00 | 32 | |
| 20260502103402 | 57 | 137 | 0.0 | 0.0 | 0.00 | 0.00 | 0.00 | 35 | |
| 20260502102401 | 57 | 137 | 0.0 | 0.0 | 0.00 | 0.00 | 0.00 | 35 | |
| 20260502101401 | 57 | 137 | 0.0 | 0.0 | 0.00 | 0.00 | 0.00 | 34 | |
| 20260502100400 | 57 | 137 | 0.0 | 0.0 | 0.00 | 0.00 | 0.00 | 34 | |
| 20260502091357 | 63 | 101 | 0.0 | 0.9 | 0.00 | 0.00 | 0.00 | 31 | |
| 20260502090358 | 63 | 135 | 0.0 | 2.6 | 0.00 | 0.00 | 0.00 | 31 | |
| 20260502071350 | 67 | 129 | 0.0 | 0.0 | 0.00 | 0.00 | 0.00 | 26 | |
| 20260502070350 | 70 | 129 | 0.0 | 3.5 | 0.00 | 0.00 | 0.00 | 23 | |
| 20260502065429 | 70 | 104 | 0.0 | 0.9 | 0.00 | 0.00 | 0.00 | 22 | |
| 20260502065349 | 70 | 104 | 0.0 | 0.9 | 0.00 | 0.00 | 0.00 | 22 | |
| 20260502064349 | 69 | 113 | 0.0 | 0.0 | 0.00 | 0.00 | 0.00 | 20 | |
| 20260502063348 | 69 | 127 | 2.6 | 2.6 | 0.00 | 0.00 | 0.00 | 22 | |
| 20260502062349 | 69 | 123 | 0.0 | 1.7 | 0.00 | 0.00 | 0.00 | 22 | |
| 20260502061347 | 69 | 180 | 0.0 | 0.0 | 0.00 | 0.00 | 0.00 | 100 | |
| 20260502060346 | 68 | 180 | 0.0 | 0.0 | 0.00 | 0.00 | 0.00 | 20 | |
| 20260502055346 | 67 | 180 | 0.0 | 0.0 | 0.00 | 0.00 | 0.00 | 21 | |
| 20260502054345 | 66 | 180 | 0.0 | 0.0 | 0.00 | 0.00 | 0.00 | 21 | |
| 20260502053345 | 64 | 180 | 0.0 | 0.0 | 0.00 | 0.00 | 0.00 | 22 | |
| 20260502052344 | 63 | 180 | 0.0 | 0.0 | 0.00 | 0.00 | 0.00 | 23 | |
| 20260502051343 | 60 | 180 | 0.0 | 0.0 | 0.00 | 0.00 | 0.00 | 24 | |
| 20260502050343 | 59 | 180 | 0.0 | 0.0 | 0.00 | 0.00 | 0.00 | 24 |